sensor_id;sensor_type;location;lat;lon;timestamp;temperature;humidity
46085;DHT22;31823;47.032;8.310;2024-01-30T00:01:50;1.40;99.90
46085;DHT22;31823;47.032;8.310;2024-01-30T00:04:15;1.40;99.90
46085;DHT22;31823;47.032;8.310;2024-01-30T00:06:42;1.40;99.90
46085;DHT22;31823;47.032;8.310;2024-01-30T00:09:08;1.40;99.90
46085;DHT22;31823;47.032;8.310;2024-01-30T00:11:34;1.30;99.90
46085;DHT22;31823;47.032;8.310;2024-01-30T00:14:00;1.30;99.90
46085;DHT22;31823;47.032;8.310;2024-01-30T00:16:27;1.30;99.90
46085;DHT22;31823;47.032;8.310;2024-01-30T00:18:53;1.30;99.90
46085;DHT22;31823;47.032;8.310;2024-01-30T00:21:20;1.40;99.90
46085;DHT22;31823;47.032;8.310;2024-01-30T00:23:46;1.30;99.90
46085;DHT22;31823;47.032;8.310;2024-01-30T00:26:12;1.30;99.90
46085;DHT22;31823;47.032;8.310;2024-01-30T00:28:43;1.40;99.90
46085;DHT22;31823;47.032;8.310;2024-01-30T00:31:09;1.40;99.90
46085;DHT22;31823;47.032;8.310;2024-01-30T00:33:38;1.30;99.90
46085;DHT22;31823;47.032;8.310;2024-01-30T00:36:05;1.40;99.90
46085;DHT22;31823;47.032;8.310;2024-01-30T00:38:35;1.30;99.90
46085;DHT22;31823;47.032;8.310;2024-01-30T00:41:01;1.30;99.90
46085;DHT22;31823;47.032;8.310;2024-01-30T00:43:30;1.30;99.90
46085;DHT22;31823;47.032;8.310;2024-01-30T00:45:56;1.30;99.90
46085;DHT22;31823;47.032;8.310;2024-01-30T00:48:23;1.30;99.90
46085;DHT22;31823;47.032;8.310;2024-01-30T00:50:49;1.20;99.90
46085;DHT22;31823;47.032;8.310;2024-01-30T00:53:15;1.20;99.90
46085;DHT22;31823;47.032;8.310;2024-01-30T00:55:40;1.20;99.90
46085;DHT22;31823;47.032;8.310;2024-01-30T00:58:06;1.20;99.90
46085;DHT22;31823;47.032;8.310;2024-01-30T01:00:32;1.20;99.90
46085;DHT22;31823;47.032;8.310;2024-01-30T01:02:58;1.20;99.90
46085;DHT22;31823;47.032;8.310;2024-01-30T01:05:24;1.20;99.90
46085;DHT22;31823;47.032;8.310;2024-01-30T01:07:50;1.20;99.90
46085;DHT22;31823;47.032;8.310;2024-01-30T01:10:19;1.20;99.90
46085;DHT22;31823;47.032;8.310;2024-01-30T01:12:45;1.20;99.90
46085;DHT22;31823;47.032;8.310;2024-01-30T01:15:11;1.10;99.90
46085;DHT22;31823;47.032;8.310;2024-01-30T01:17:40;1.10;99.90
46085;DHT22;31823;47.032;8.310;2024-01-30T01:20:07;1.10;99.90
46085;DHT22;31823;47.032;8.310;2024-01-30T01:22:33;1.10;99.90
46085;DHT22;31823;47.032;8.310;2024-01-30T01:25:00;1.10;99.90
46085;DHT22;31823;47.032;8.310;2024-01-30T01:27:25;1.10;99.90
46085;DHT22;31823;47.032;8.310;2024-01-30T01:29:52;1.10;99.90
46085;DHT22;31823;47.032;8.310;2024-01-30T01:32:18;1.10;99.90
46085;DHT22;31823;47.032;8.310;2024-01-30T01:34:44;1.10;99.90
46085;DHT22;31823;47.032;8.310;2024-01-30T01:37:09;1.10;99.90
46085;DHT22;31823;47.032;8.310;2024-01-30T01:39:35;1.00;99.90
46085;DHT22;31823;47.032;8.310;2024-01-30T01:42:00;1.00;99.90
46085;DHT22;31823;47.032;8.310;2024-01-30T01:44:27;1.00;99.90
46085;DHT22;31823;47.032;8.310;2024-01-30T01:46:54;1.00;99.90
46085;DHT22;31823;47.032;8.310;2024-01-30T01:49:21;1.00;99.90
46085;DHT22;31823;47.032;8.310;2024-01-30T01:51:47;1.00;99.90
46085;DHT22;31823;47.032;8.310;2024-01-30T01:54:14;1.00;99.90
46085;DHT22;31823;47.032;8.310;2024-01-30T01:56:42;1.00;99.90
46085;DHT22;31823;47.032;8.310;2024-01-30T01:59:09;1.00;99.90
46085;DHT22;31823;47.032;8.310;2024-01-30T02:01:37;1.00;99.90
46085;DHT22;31823;47.032;8.310;2024-01-30T02:04:03;1.00;99.90
46085;DHT22;31823;47.032;8.310;2024-01-30T02:06:29;1.00;99.90
46085;DHT22;31823;47.032;8.310;2024-01-30T02:08:55;0.90;99.90
46085;DHT22;31823;47.032;8.310;2024-01-30T02:11:22;1.00;99.90
46085;DHT22;31823;47.032;8.310;2024-01-30T02:13:48;1.00;99.90
46085;DHT22;31823;47.032;8.310;2024-01-30T02:16:14;1.00;99.90
46085;DHT22;31823;47.032;8.310;2024-01-30T02:18:40;1.00;99.90
46085;DHT22;31823;47.032;8.310;2024-01-30T02:21:11;1.00;99.90
46085;DHT22;31823;47.032;8.310;2024-01-30T02:23:36;0.90;99.90
46085;DHT22;31823;47.032;8.310;2024-01-30T02:26:03;0.90;99.90
46085;DHT22;31823;47.032;8.310;2024-01-30T02:28:28;0.90;99.90
46085;DHT22;31823;47.032;8.310;2024-01-30T02:30:54;0.90;99.90
46085;DHT22;31823;47.032;8.310;2024-01-30T02:33:20;0.90;99.90
46085;DHT22;31823;47.032;8.310;2024-01-30T02:35:47;0.80;99.90
46085;DHT22;31823;47.032;8.310;2024-01-30T02:38:15;0.80;99.90
46085;DHT22;31823;47.032;8.310;2024-01-30T02:40:41;0.80;99.90
46085;DHT22;31823;47.032;8.310;2024-01-30T02:43:06;0.80;99.90
46085;DHT22;31823;47.032;8.310;2024-01-30T02:45:32;0.80;99.90
46085;DHT22;31823;47.032;8.310;2024-01-30T02:47:57;0.80;99.90
46085;DHT22;31823;47.032;8.310;2024-01-30T02:50:23;0.80;99.90
46085;DHT22;31823;47.032;8.310;2024-01-30T02:52:48;0.80;99.90
46085;DHT22;31823;47.032;8.310;2024-01-30T02:55:14;0.80;99.90
46085;DHT22;31823;47.032;8.310;2024-01-30T02:57:42;0.80;99.90
46085;DHT22;31823;47.032;8.310;2024-01-30T03:00:08;0.70;99.90
46085;DHT22;31823;47.032;8.310;2024-01-30T03:02:35;0.70;99.90
46085;DHT22;31823;47.032;8.310;2024-01-30T03:05:01;0.70;99.90
46085;DHT22;31823;47.032;8.310;2024-01-30T03:07:26;0.70;99.90
46085;DHT22;31823;47.032;8.310;2024-01-30T03:09:52;0.70;99.90
46085;DHT22;31823;47.032;8.310;2024-01-30T03:12:18;0.70;99.90
46085;DHT22;31823;47.032;8.310;2024-01-30T03:14:43;0.80;99.90
46085;DHT22;31823;47.032;8.310;2024-01-30T03:17:09;0.70;99.90
46085;DHT22;31823;47.032;8.310;2024-01-30T03:19:34;0.70;99.90
46085;DHT22;31823;47.032;8.310;2024-01-30T03:22:00;0.70;99.90
46085;DHT22;31823;47.032;8.310;2024-01-30T03:24:26;0.70;99.90
46085;DHT22;31823;47.032;8.310;2024-01-30T03:26:51;0.70;99.90
46085;DHT22;31823;47.032;8.310;2024-01-30T03:29:17;0.60;99.90
46085;DHT22;31823;47.032;8.310;2024-01-30T03:31:43;0.60;99.90
46085;DHT22;31823;47.032;8.310;2024-01-30T03:34:08;0.60;99.90
46085;DHT22;31823;47.032;8.310;2024-01-30T03:36:34;0.70;99.90
46085;DHT22;31823;47.032;8.310;2024-01-30T03:39:00;0.70;99.90
46085;DHT22;31823;47.032;8.310;2024-01-30T03:41:26;0.70;99.90
46085;DHT22;31823;47.032;8.310;2024-01-30T03:43:51;0.70;99.90
46085;DHT22;31823;47.032;8.310;2024-01-30T03:46:17;0.70;99.90
46085;DHT22;31823;47.032;8.310;2024-01-30T03:48:43;0.60;99.90
46085;DHT22;31823;47.032;8.310;2024-01-30T03:51:09;0.70;99.90
46085;DHT22;31823;47.032;8.310;2024-01-30T03:53:42;0.70;99.90
46085;DHT22;31823;47.032;8.310;2024-01-30T03:56:09;0.70;99.90
46085;DHT22;31823;47.032;8.310;2024-01-30T03:58:34;0.60;99.90
46085;DHT22;31823;47.032;8.310;2024-01-30T04:01:00;0.60;99.90
46085;DHT22;31823;47.032;8.310;2024-01-30T04:03:26;0.60;99.90
46085;DHT22;31823;47.032;8.310;2024-01-30T04:05:52;0.60;99.90
46085;DHT22;31823;47.032;8.310;2024-01-30T04:08:18;0.60;99.90
46085;DHT22;31823;47.032;8.310;2024-01-30T04:10:43;0.60;99.90
46085;DHT22;31823;47.032;8.310;2024-01-30T04:13:10;0.60;99.90
46085;DHT22;31823;47.032;8.310;2024-01-30T04:15:35;0.70;99.90
46085;DHT22;31823;47.032;8.310;2024-01-30T04:18:01;0.60;99.90
46085;DHT22;31823;47.032;8.310;2024-01-30T04:20:27;0.60;99.90
46085;DHT22;31823;47.032;8.310;2024-01-30T04:22:52;0.60;99.90
46085;DHT22;31823;47.032;8.310;2024-01-30T04:25:18;0.70;99.90
46085;DHT22;31823;47.032;8.310;2024-01-30T04:27:44;0.70;99.90
46085;DHT22;31823;47.032;8.310;2024-01-30T04:30:10;0.60;99.90
46085;DHT22;31823;47.032;8.310;2024-01-30T04:32:36;0.60;99.90
46085;DHT22;31823;47.032;8.310;2024-01-30T04:35:02;0.60;99.90
46085;DHT22;31823;47.032;8.310;2024-01-30T04:37:28;0.60;99.90
46085;DHT22;31823;47.032;8.310;2024-01-30T04:39:53;0.60;99.90
46085;DHT22;31823;47.032;8.310;2024-01-30T04:42:19;0.60;99.90
46085;DHT22;31823;47.032;8.310;2024-01-30T04:44:45;0.60;99.90
46085;DHT22;31823;47.032;8.310;2024-01-30T04:47:10;0.60;99.90
46085;DHT22;31823;47.032;8.310;2024-01-30T04:49:38;0.60;99.90
46085;DHT22;31823;47.032;8.310;2024-01-30T04:52:08;0.60;99.90
46085;DHT22;31823;47.032;8.310;2024-01-30T04:54:35;0.60;99.90
46085;DHT22;31823;47.032;8.310;2024-01-30T04:57:01;0.60;99.90
46085;DHT22;31823;47.032;8.310;2024-01-30T04:59:27;0.70;99.90
46085;DHT22;31823;47.032;8.310;2024-01-30T05:01:53;0.60;99.90
46085;DHT22;31823;47.032;8.310;2024-01-30T05:04:18;0.60;99.90
46085;DHT22;31823;47.032;8.310;2024-01-30T05:06:45;0.60;99.90
46085;DHT22;31823;47.032;8.310;2024-01-30T05:09:10;0.60;99.90
46085;DHT22;31823;47.032;8.310;2024-01-30T05:11:40;0.50;99.90
46085;DHT22;31823;47.032;8.310;2024-01-30T05:14:06;0.50;99.90
46085;DHT22;31823;47.032;8.310;2024-01-30T05:16:32;0.50;99.90
46085;DHT22;31823;47.032;8.310;2024-01-30T05:18:58;0.50;99.90
46085;DHT22;31823;47.032;8.310;2024-01-30T05:21:24;0.50;99.90
46085;DHT22;31823;47.032;8.310;2024-01-30T05:23:50;0.50;99.90
46085;DHT22;31823;47.032;8.310;2024-01-30T05:26:15;0.50;99.90
46085;DHT22;31823;47.032;8.310;2024-01-30T05:28:41;0.50;99.90
46085;DHT22;31823;47.032;8.310;2024-01-30T05:31:08;0.50;99.90
46085;DHT22;31823;47.032;8.310;2024-01-30T05:33:33;0.40;99.90
46085;DHT22;31823;47.032;8.310;2024-01-30T05:35:59;0.40;99.90
46085;DHT22;31823;47.032;8.310;2024-01-30T05:38:24;0.40;99.90
46085;DHT22;31823;47.032;8.310;2024-01-30T05:40:50;0.40;99.90
46085;DHT22;31823;47.032;8.310;2024-01-30T05:43:16;0.50;99.90
46085;DHT22;31823;47.032;8.310;2024-01-30T05:45:42;0.50;99.90
46085;DHT22;31823;47.032;8.310;2024-01-30T05:48:07;0.40;99.90
46085;DHT22;31823;47.032;8.310;2024-01-30T05:50:33;0.50;99.90
46085;DHT22;31823;47.032;8.310;2024-01-30T05:52:58;0.40;99.90
46085;DHT22;31823;47.032;8.310;2024-01-30T05:55:24;0.40;99.90
46085;DHT22;31823;47.032;8.310;2024-01-30T05:57:49;0.40;99.90
46085;DHT22;31823;47.032;8.310;2024-01-30T06:00:16;0.40;99.90
46085;DHT22;31823;47.032;8.310;2024-01-30T06:02:42;0.40;99.90
46085;DHT22;31823;47.032;8.310;2024-01-30T06:05:08;0.40;99.90
46085;DHT22;31823;47.032;8.310;2024-01-30T06:07:33;0.40;99.90
46085;DHT22;31823;47.032;8.310;2024-01-30T06:09:59;0.40;99.90
46085;DHT22;31823;47.032;8.310;2024-01-30T06:12:27;0.40;99.90
46085;DHT22;31823;47.032;8.310;2024-01-30T06:14:53;0.40;99.90
46085;DHT22;31823;47.032;8.310;2024-01-30T06:17:22;0.50;99.90
46085;DHT22;31823;47.032;8.310;2024-01-30T06:19:48;0.50;99.90
46085;DHT22;31823;47.032;8.310;2024-01-30T06:22:13;0.50;99.90
46085;DHT22;31823;47.032;8.310;2024-01-30T06:24:39;0.50;99.90
46085;DHT22;31823;47.032;8.310;2024-01-30T06:27:04;0.50;99.90
46085;DHT22;31823;47.032;8.310;2024-01-30T06:29:30;0.50;99.90
46085;DHT22;31823;47.032;8.310;2024-01-30T06:31:56;0.50;99.90
46085;DHT22;31823;47.032;8.310;2024-01-30T06:34:22;0.40;99.90
46085;DHT22;31823;47.032;8.310;2024-01-30T06:36:48;0.50;99.90
46085;DHT22;31823;47.032;8.310;2024-01-30T06:39:13;0.50;99.90
46085;DHT22;31823;47.032;8.310;2024-01-30T06:41:39;0.50;99.90
46085;DHT22;31823;47.032;8.310;2024-01-30T06:44:05;0.50;99.90
46085;DHT22;31823;47.032;8.310;2024-01-30T06:46:32;0.50;99.90
46085;DHT22;31823;47.032;8.310;2024-01-30T06:48:58;0.50;99.90
46085;DHT22;31823;47.032;8.310;2024-01-30T06:51:23;0.50;99.90
46085;DHT22;31823;47.032;8.310;2024-01-30T06:53:49;0.50;99.90
46085;DHT22;31823;47.032;8.310;2024-01-30T06:56:15;0.50;99.90
46085;DHT22;31823;47.032;8.310;2024-01-30T06:58:40;0.50;99.90
46085;DHT22;31823;47.032;8.310;2024-01-30T07:01:06;0.50;99.90
46085;DHT22;31823;47.032;8.310;2024-01-30T07:03:32;0.50;99.90
46085;DHT22;31823;47.032;8.310;2024-01-30T07:05:58;0.50;99.90
46085;DHT22;31823;47.032;8.310;2024-01-30T07:08:24;0.40;99.90
46085;DHT22;31823;47.032;8.310;2024-01-30T07:10:49;0.40;99.90
46085;DHT22;31823;47.032;8.310;2024-01-30T07:13:15;0.40;99.90
46085;DHT22;31823;47.032;8.310;2024-01-30T07:15:42;0.40;99.90
46085;DHT22;31823;47.032;8.310;2024-01-30T07:18:08;0.50;99.90
46085;DHT22;31823;47.032;8.310;2024-01-30T07:20:35;0.50;99.90
46085;DHT22;31823;47.032;8.310;2024-01-30T07:23:00;0.50;99.90
46085;DHT22;31823;47.032;8.310;2024-01-30T07:25:26;0.60;99.90
46085;DHT22;31823;47.032;8.310;2024-01-30T07:27:55;0.60;99.90
46085;DHT22;31823;47.032;8.310;2024-01-30T07:30:21;0.70;99.90
46085;DHT22;31823;47.032;8.310;2024-01-30T07:32:47;0.70;99.90
46085;DHT22;31823;47.032;8.310;2024-01-30T07:35:13;0.80;99.90
46085;DHT22;31823;47.032;8.310;2024-01-30T07:37:42;0.80;99.90
46085;DHT22;31823;47.032;8.310;2024-01-30T07:40:08;0.90;99.90
46085;DHT22;31823;47.032;8.310;2024-01-30T07:42:34;0.90;99.90
46085;DHT22;31823;47.032;8.310;2024-01-30T07:45:00;1.00;99.90
46085;DHT22;31823;47.032;8.310;2024-01-30T07:47:26;1.10;99.90
46085;DHT22;31823;47.032;8.310;2024-01-30T07:49:51;1.10;99.90
46085;DHT22;31823;47.032;8.310;2024-01-30T07:52:18;1.10;99.90
46085;DHT22;31823;47.032;8.310;2024-01-30T07:57:53;1.20;99.90
46085;DHT22;31823;47.032;8.310;2024-01-30T08:00:21;1.30;99.90
46085;DHT22;31823;47.032;8.310;2024-01-30T08:02:47;1.30;99.90
46085;DHT22;31823;47.032;8.310;2024-01-30T08:05:13;1.30;99.90
46085;DHT22;31823;47.032;8.310;2024-01-30T08:07:41;1.40;99.90
46085;DHT22;31823;47.032;8.310;2024-01-30T08:10:07;1.50;99.90
46085;DHT22;31823;47.032;8.310;2024-01-30T08:12:33;1.60;99.90
46085;DHT22;31823;47.032;8.310;2024-01-30T08:14:58;1.60;99.90
46085;DHT22;31823;47.032;8.310;2024-01-30T08:17:24;1.70;99.90
46085;DHT22;31823;47.032;8.310;2024-01-30T08:19:49;1.70;99.90
46085;DHT22;31823;47.032;8.310;2024-01-30T08:22:15;1.70;99.90
46085;DHT22;31823;47.032;8.310;2024-01-30T08:24:41;1.70;99.90
46085;DHT22;31823;47.032;8.310;2024-01-30T08:27:07;1.80;99.90
46085;DHT22;31823;47.032;8.310;2024-01-30T08:29:35;1.80;99.90
46085;DHT22;31823;47.032;8.310;2024-01-30T08:32:01;1.90;99.90
46085;DHT22;31823;47.032;8.310;2024-01-30T08:34:27;1.90;99.90
46085;DHT22;31823;47.032;8.310;2024-01-30T08:36:53;1.90;99.90
46085;DHT22;31823;47.032;8.310;2024-01-30T08:39:19;2.00;99.90
46085;DHT22;31823;47.032;8.310;2024-01-30T08:41:45;2.00;99.90
46085;DHT22;31823;47.032;8.310;2024-01-30T08:44:10;2.10;99.90
46085;DHT22;31823;47.032;8.310;2024-01-30T08:46:36;2.10;99.90
46085;DHT22;31823;47.032;8.310;2024-01-30T08:49:02;2.10;99.90
46085;DHT22;31823;47.032;8.310;2024-01-30T08:51:29;2.20;99.90
46085;DHT22;31823;47.032;8.310;2024-01-30T08:53:55;2.20;99.90
46085;DHT22;31823;47.032;8.310;2024-01-30T08:56:21;2.30;99.90
46085;DHT22;31823;47.032;8.310;2024-01-30T08:58:46;2.30;99.90
46085;DHT22;31823;47.032;8.310;2024-01-30T09:01:12;2.30;99.90
46085;DHT22;31823;47.032;8.310;2024-01-30T09:03:38;2.40;99.90
46085;DHT22;31823;47.032;8.310;2024-01-30T09:06:09;2.40;99.90
46085;DHT22;31823;47.032;8.310;2024-01-30T09:08:35;2.50;99.90
46085;DHT22;31823;47.032;8.310;2024-01-30T09:11:00;2.60;99.90
46085;DHT22;31823;47.032;8.310;2024-01-30T09:13:26;2.80;99.90
46085;DHT22;31823;47.032;8.310;2024-01-30T09:15:51;3.10;99.90
46085;DHT22;31823;47.032;8.310;2024-01-30T09:18:18;3.20;99.90
46085;DHT22;31823;47.032;8.310;2024-01-30T09:20:44;3.40;99.90
46085;DHT22;31823;47.032;8.310;2024-01-30T09:23:13;3.70;99.90
46085;DHT22;31823;47.032;8.310;2024-01-30T09:25:38;3.70;99.90
46085;DHT22;31823;47.032;8.310;2024-01-30T09:28:05;3.90;99.90
46085;DHT22;31823;47.032;8.310;2024-01-30T09:30:30;4.40;99.90
46085;DHT22;31823;47.032;8.310;2024-01-30T09:32:56;5.50;99.90
46085;DHT22;31823;47.032;8.310;2024-01-30T09:35:21;7.10;99.90
46085;DHT22;31823;47.032;8.310;2024-01-30T09:37:47;7.60;99.90
46085;DHT22;31823;47.032;8.310;2024-01-30T09:40:13;9.30;99.90
46085;DHT22;31823;47.032;8.310;2024-01-30T09:42:40;11.20;99.90
46085;DHT22;31823;47.032;8.310;2024-01-30T09:45:07;11.30;99.90
46085;DHT22;31823;47.032;8.310;2024-01-30T09:47:40;11.30;99.90
46085;DHT22;31823;47.032;8.310;2024-01-30T09:50:11;11.40;99.90
46085;DHT22;31823;47.032;8.310;2024-01-30T09:52:40;12.50;99.10
46085;DHT22;31823;47.032;8.310;2024-01-30T09:55:07;11.50;99.90
46085;DHT22;31823;47.032;8.310;2024-01-30T09:57:34;10.40;99.90
46085;DHT22;31823;47.032;8.310;2024-01-30T09:59:59;8.90;99.90
46085;DHT22;31823;47.032;8.310;2024-01-30T10:02:25;9.00;99.90
46085;DHT22;31823;47.032;8.310;2024-01-30T10:04:52;10.50;99.90
46085;DHT22;31823;47.032;8.310;2024-01-30T10:07:18;12.90;99.90
46085;DHT22;31823;47.032;8.310;2024-01-30T10:09:44;14.80;96.30
46085;DHT22;31823;47.032;8.310;2024-01-30T10:12:10;16.50;91.80
46085;DHT22;31823;47.032;8.310;2024-01-30T10:14:39;16.60;90.10
46085;DHT22;31823;47.032;8.310;2024-01-30T10:17:07;15.50;93.40
46085;DHT22;31823;47.032;8.310;2024-01-30T10:19:32;16.60;92.90
46085;DHT22;31823;47.032;8.310;2024-01-30T10:22:00;15.10;93.50
46085;DHT22;31823;47.032;8.310;2024-01-30T10:24:28;13.70;95.10
46085;DHT22;31823;47.032;8.310;2024-01-30T10:26:57;12.80;94.90
46085;DHT22;31823;47.032;8.310;2024-01-30T10:29:22;12.20;97.00
46085;DHT22;31823;47.032;8.310;2024-01-30T10:32:02;13.20;95.50
46085;DHT22;31823;47.032;8.310;2024-01-30T10:34:28;12.40;97.30
46085;DHT22;31823;47.032;8.310;2024-01-30T10:39:37;12.80;97.50
46085;DHT22;31823;47.032;8.310;2024-01-30T10:42:04;13.30;95.50
46085;DHT22;31823;47.032;8.310;2024-01-30T10:44:43;11.90;96.40
46085;DHT22;31823;47.032;8.310;2024-01-30T10:47:12;11.60;96.80
46085;DHT22;31823;47.032;8.310;2024-01-30T10:49:41;11.80;97.50
46085;DHT22;31823;47.032;8.310;2024-01-30T10:52:09;11.30;98.00
46085;DHT22;31823;47.032;8.310;2024-01-30T10:54:36;11.00;98.20
46085;DHT22;31823;47.032;8.310;2024-01-30T10:57:03;10.80;98.90
46085;DHT22;31823;47.032;8.310;2024-01-30T10:59:30;10.40;99.10
46085;DHT22;31823;47.032;8.310;2024-01-30T11:01:57;10.70;98.60
46085;DHT22;31823;47.032;8.310;2024-01-30T11:04:24;10.70;97.50
46085;DHT22;31823;47.032;8.310;2024-01-30T11:06:51;10.70;97.50
46085;DHT22;31823;47.032;8.310;2024-01-30T11:09:18;10.80;96.80
46085;DHT22;31823;47.032;8.310;2024-01-30T11:11:56;11.30;97.30
46085;DHT22;31823;47.032;8.310;2024-01-30T11:14:30;12.00;96.20
46085;DHT22;31823;47.032;8.310;2024-01-30T11:16:59;13.10;94.30
46085;DHT22;31823;47.032;8.310;2024-01-30T11:19:26;13.60;93.20
46085;DHT22;31823;47.032;8.310;2024-01-30T11:21:55;13.30;93.80
46085;DHT22;31823;47.032;8.310;2024-01-30T11:24:25;13.70;93.30
46085;DHT22;31823;47.032;8.310;2024-01-30T11:26:58;15.50;91.40
46085;DHT22;31823;47.032;8.310;2024-01-30T11:29:28;16.60;90.10
46085;DHT22;31823;47.032;8.310;2024-01-30T11:31:58;16.40;90.00
46085;DHT22;31823;47.032;8.310;2024-01-30T11:34:24;16.60;87.70
46085;DHT22;31823;47.032;8.310;2024-01-30T11:36:56;17.00;86.80
46085;DHT22;31823;47.032;8.310;2024-01-30T11:39:29;17.50;84.30
46085;DHT22;31823;47.032;8.310;2024-01-30T11:41:56;16.30;88.80
46085;DHT22;31823;47.032;8.310;2024-01-30T11:44:23;14.00;92.10
46085;DHT22;31823;47.032;8.310;2024-01-30T11:46:49;13.00;92.00
46085;DHT22;31823;47.032;8.310;2024-01-30T11:49:16;14.00;91.30
46085;DHT22;31823;47.032;8.310;2024-01-30T11:51:43;14.60;91.30
46085;DHT22;31823;47.032;8.310;2024-01-30T11:54:10;13.00;92.80
46085;DHT22;31823;47.032;8.310;2024-01-30T11:56:37;12.30;94.80
46085;DHT22;31823;47.032;8.310;2024-01-30T11:59:04;11.50;96.40
46085;DHT22;31823;47.032;8.310;2024-01-30T12:01:29;12.30;96.50
46085;DHT22;31823;47.032;8.310;2024-01-30T12:03:55;12.00;95.40
46085;DHT22;31823;47.032;8.310;2024-01-30T12:06:22;11.80;96.60
46085;DHT22;31823;47.032;8.310;2024-01-30T12:09:02;12.10;96.00
46085;DHT22;31823;47.032;8.310;2024-01-30T12:11:46;11.50;97.00
46085;DHT22;31823;47.032;8.310;2024-01-30T12:14:12;10.90;98.20
46085;DHT22;31823;47.032;8.310;2024-01-30T12:16:38;11.30;97.80
46085;DHT22;31823;47.032;8.310;2024-01-30T12:19:04;11.40;98.40
46085;DHT22;31823;47.032;8.310;2024-01-30T12:21:29;11.80;96.50
46085;DHT22;31823;47.032;8.310;2024-01-30T12:23:56;12.30;95.70
46085;DHT22;31823;47.032;8.310;2024-01-30T12:26:24;12.70;95.30
46085;DHT22;31823;47.032;8.310;2024-01-30T12:28:51;12.40;96.00
46085;DHT22;31823;47.032;8.310;2024-01-30T12:31:25;11.70;96.30
46085;DHT22;31823;47.032;8.310;2024-01-30T12:33:52;11.00;97.60
46085;DHT22;31823;47.032;8.310;2024-01-30T12:36:18;10.50;98.40
46085;DHT22;31823;47.032;8.310;2024-01-30T12:38:44;10.70;98.30
46085;DHT22;31823;47.032;8.310;2024-01-30T12:41:10;11.10;98.50
46085;DHT22;31823;47.032;8.310;2024-01-30T12:43:36;12.50;96.30
46085;DHT22;31823;47.032;8.310;2024-01-30T12:46:03;12.20;95.60
46085;DHT22;31823;47.032;8.310;2024-01-30T12:48:28;13.30;95.30
46085;DHT22;31823;47.032;8.310;2024-01-30T12:50:56;12.90;94.10
46085;DHT22;31823;47.032;8.310;2024-01-30T12:53:22;12.50;95.30
46085;DHT22;31823;47.032;8.310;2024-01-30T12:55:47;12.70;94.40
46085;DHT22;31823;47.032;8.310;2024-01-30T12:58:15;13.20;94.30
46085;DHT22;31823;47.032;8.310;2024-01-30T13:00:41;13.20;93.70
46085;DHT22;31823;47.032;8.310;2024-01-30T13:03:08;13.00;93.70
46085;DHT22;31823;47.032;8.310;2024-01-30T13:05:34;13.40;92.90
46085;DHT22;31823;47.032;8.310;2024-01-30T13:07:59;14.40;91.90
46085;DHT22;31823;47.032;8.310;2024-01-30T13:10:25;15.10;90.70
46085;DHT22;31823;47.032;8.310;2024-01-30T13:12:51;13.70;91.90
46085;DHT22;31823;47.032;8.310;2024-01-30T13:15:16;13.20;93.30
46085;DHT22;31823;47.032;8.310;2024-01-30T13:17:42;12.80;93.60
46085;DHT22;31823;47.032;8.310;2024-01-30T13:20:09;12.80;93.40
46085;DHT22;31823;47.032;8.310;2024-01-30T13:22:35;13.70;92.30
46085;DHT22;31823;47.032;8.310;2024-01-30T13:25:00;14.30;91.50
46085;DHT22;31823;47.032;8.310;2024-01-30T13:27:26;14.10;91.30
46085;DHT22;31823;47.032;8.310;2024-01-30T13:29:52;14.70;91.00
46085;DHT22;31823;47.032;8.310;2024-01-30T13:32:18;15.50;90.00
46085;DHT22;31823;47.032;8.310;2024-01-30T13:34:43;16.00;88.70
46085;DHT22;31823;47.032;8.310;2024-01-30T13:37:09;14.80;90.40
46085;DHT22;31823;47.032;8.310;2024-01-30T13:39:35;14.70;91.40
46085;DHT22;31823;47.032;8.310;2024-01-30T13:42:00;14.20;91.90
46085;DHT22;31823;47.032;8.310;2024-01-30T13:44:26;13.60;92.50
46085;DHT22;31823;47.032;8.310;2024-01-30T13:46:51;13.00;93.70
46085;DHT22;31823;47.032;8.310;2024-01-30T13:49:17;14.10;92.80
46085;DHT22;31823;47.032;8.310;2024-01-30T13:51:42;15.80;90.70
46085;DHT22;31823;47.032;8.310;2024-01-30T13:54:08;16.40;89.50
46085;DHT22;31823;47.032;8.310;2024-01-30T13:56:34;16.20;90.20
46085;DHT22;31823;47.032;8.310;2024-01-30T13:58:59;16.90;88.00
46085;DHT22;31823;47.032;8.310;2024-01-30T14:01:26;16.40;88.10
46085;DHT22;31823;47.032;8.310;2024-01-30T14:03:52;16.40;88.70
46085;DHT22;31823;47.032;8.310;2024-01-30T14:06:18;15.80;89.50
46085;DHT22;31823;47.032;8.310;2024-01-30T14:08:44;15.40;89.90
46085;DHT22;31823;47.032;8.310;2024-01-30T14:11:10;14.30;91.10
46085;DHT22;31823;47.032;8.310;2024-01-30T14:13:35;13.50;91.80
46085;DHT22;31823;47.032;8.310;2024-01-30T14:16:01;12.60;92.30
46085;DHT22;31823;47.032;8.310;2024-01-30T14:18:27;12.20;93.90
46085;DHT22;31823;47.032;8.310;2024-01-30T14:20:52;11.80;94.40
46085;DHT22;31823;47.032;8.310;2024-01-30T14:23:19;11.30;95.30
46085;DHT22;31823;47.032;8.310;2024-01-30T14:25:45;10.70;97.50
46085;DHT22;31823;47.032;8.310;2024-01-30T14:28:10;10.20;97.90
46085;DHT22;31823;47.032;8.310;2024-01-30T14:30:36;10.30;99.90
46085;DHT22;31823;47.032;8.310;2024-01-30T14:33:02;10.20;99.90
46085;DHT22;31823;47.032;8.310;2024-01-30T14:35:27;9.80;99.90
46085;DHT22;31823;47.032;8.310;2024-01-30T14:37:53;9.50;99.90
46085;DHT22;31823;47.032;8.310;2024-01-30T14:40:19;9.50;99.90
46085;DHT22;31823;47.032;8.310;2024-01-30T14:42:45;9.50;99.90
46085;DHT22;31823;47.032;8.310;2024-01-30T14:45:11;9.30;99.90
46085;DHT22;31823;47.032;8.310;2024-01-30T14:47:37;9.10;99.90
46085;DHT22;31823;47.032;8.310;2024-01-30T14:50:03;9.00;99.90
46085;DHT22;31823;47.032;8.310;2024-01-30T14:52:31;8.90;99.90
46085;DHT22;31823;47.032;8.310;2024-01-30T14:54:57;8.80;99.90
46085;DHT22;31823;47.032;8.310;2024-01-30T14:57:24;8.80;99.90
46085;DHT22;31823;47.032;8.310;2024-01-30T14:59:49;8.70;99.90
46085;DHT22;31823;47.032;8.310;2024-01-30T15:02:15;8.80;99.90
46085;DHT22;31823;47.032;8.310;2024-01-30T15:04:40;8.70;99.90
46085;DHT22;31823;47.032;8.310;2024-01-30T15:07:06;8.60;99.90
46085;DHT22;31823;47.032;8.310;2024-01-30T15:09:32;8.50;99.90
46085;DHT22;31823;47.032;8.310;2024-01-30T15:11:57;8.50;99.90
46085;DHT22;31823;47.032;8.310;2024-01-30T15:14:23;8.50;99.90
46085;DHT22;31823;47.032;8.310;2024-01-30T15:16:49;8.40;99.90
46085;DHT22;31823;47.032;8.310;2024-01-30T15:19:15;8.30;99.90
46085;DHT22;31823;47.032;8.310;2024-01-30T15:21:41;8.20;99.90
46085;DHT22;31823;47.032;8.310;2024-01-30T15:24:06;8.10;99.90
46085;DHT22;31823;47.032;8.310;2024-01-30T15:26:32;8.10;99.90
46085;DHT22;31823;47.032;8.310;2024-01-30T15:28:58;8.00;99.90
46085;DHT22;31823;47.032;8.310;2024-01-30T15:31:23;8.00;99.90
46085;DHT22;31823;47.032;8.310;2024-01-30T15:33:49;7.80;99.90
46085;DHT22;31823;47.032;8.310;2024-01-30T15:36:14;7.80;99.90
46085;DHT22;31823;47.032;8.310;2024-01-30T15:38:41;7.90;99.90
46085;DHT22;31823;47.032;8.310;2024-01-30T15:41:07;7.70;99.90
46085;DHT22;31823;47.032;8.310;2024-01-30T15:43:33;7.70;99.90